createdAt,value
2023-01-23T00:01:27.548Z,33.00
2023-01-23T00:06:21.851Z,33.10
2023-01-23T00:08:48.374Z,33.20
2023-01-23T00:11:25.027Z,31.70
2023-01-23T00:13:52.405Z,31.00
2023-01-23T00:16:25.199Z,31.40
2023-01-23T00:18:52.944Z,29.70
2023-01-23T00:21:23.258Z,28.80
2023-01-23T00:23:55.477Z,28.30
2023-01-23T00:26:24.993Z,29.80
2023-01-23T00:28:53.934Z,27.90
2023-01-23T00:31:34.967Z,30.20
2023-01-23T00:34:04.671Z,28.80
2023-01-23T00:36:34.669Z,31.30
2023-01-23T00:39:01.839Z,32.10
2023-01-23T00:41:28.993Z,33.00
2023-01-23T00:43:55.540Z,33.40
2023-01-23T00:46:23.208Z,29.80
2023-01-23T00:48:50.771Z,35.00
2023-01-23T00:51:17.511Z,31.00
2023-01-23T00:53:44.965Z,28.90
2023-01-23T00:56:12.446Z,29.70
2023-01-23T00:58:39.097Z,30.60
2023-01-23T01:01:06.132Z,29.20
2023-01-23T01:03:32.632Z,29.40
2023-01-23T01:05:59.412Z,29.10
2023-01-23T01:08:25.919Z,29.50
2023-01-23T01:10:52.564Z,30.20
2023-01-23T01:13:19.565Z,34.50
2023-01-23T01:15:46.383Z,36.70
2023-01-23T01:18:13.072Z,37.50
2023-01-23T01:20:42.143Z,36.20
2023-01-23T01:23:08.905Z,35.10
2023-01-23T01:25:36.488Z,34.80
2023-01-23T01:28:04.106Z,32.10
2023-01-23T01:30:30.764Z,31.30
2023-01-23T01:32:57.716Z,35.40
2023-01-23T01:35:25.178Z,35.70
2023-01-23T01:37:51.828Z,32.00
2023-01-23T01:40:21.919Z,30.00
2023-01-23T01:43:01.389Z,32.00
2023-01-23T01:46:06.027Z,30.30
2023-01-23T01:48:42.395Z,30.40
2023-01-23T01:51:19.916Z,32.90
2023-01-23T01:53:51.000Z,33.50
2023-01-23T01:56:19.206Z,35.60
2023-01-23T01:58:49.351Z,33.50
2023-01-23T02:01:16.522Z,37.90
2023-01-23T02:03:44.939Z,36.50
2023-01-23T02:06:12.271Z,36.10
2023-01-23T02:08:57.484Z,37.70
2023-01-23T02:11:24.624Z,34.20
2023-01-23T02:13:51.192Z,37.50
2023-01-23T02:16:24.571Z,35.90
2023-01-23T02:18:54.790Z,35.20
2023-01-23T02:21:25.233Z,37.50
2023-01-23T02:24:07.214Z,35.50
2023-01-23T02:29:04.509Z,35.70
2023-01-23T02:31:31.231Z,32.50
2023-01-23T02:33:59.334Z,34.40
2023-01-23T02:36:29.351Z,38.60
2023-01-23T02:39:04.084Z,43.10
2023-01-23T02:41:40.784Z,39.40
2023-01-23T02:44:18.557Z,38.90
2023-01-23T02:46:45.427Z,37.80
2023-01-23T02:49:11.885Z,36.10
2023-01-23T02:51:38.678Z,29.90
2023-01-23T02:54:05.430Z,33.20
2023-01-23T02:56:31.884Z,28.90
2023-01-23T02:58:58.689Z,27.30
2023-01-23T03:01:25.957Z,28.10
2023-01-23T03:03:52.391Z,34.10
2023-01-23T03:06:19.631Z,33.70
2023-01-23T03:08:46.064Z,31.80
2023-01-23T03:11:13.396Z,33.30
2023-01-23T03:13:40.338Z,33.40
2023-01-23T03:16:07.417Z,36.00
2023-01-23T03:18:40.082Z,36.40
2023-01-23T03:21:12.178Z,36.20
2023-01-23T03:23:41.749Z,31.20
2023-01-23T03:26:08.292Z,31.80
2023-01-23T03:28:34.843Z,30.60
2023-01-23T03:31:01.385Z,30.50
2023-01-23T03:33:27.917Z,30.00
2023-01-23T03:35:54.559Z,28.40
2023-01-23T03:38:21.107Z,29.30
2023-01-23T03:40:50.418Z,29.60
2023-01-23T03:43:16.847Z,29.70
2023-01-23T03:45:43.334Z,32.90
2023-01-23T03:48:10.047Z,30.50
2023-01-23T03:50:36.579Z,28.70
2023-01-23T03:53:03.039Z,28.90
2023-01-23T03:55:29.487Z,29.50
2023-01-23T03:57:55.999Z,30.70
2023-01-23T04:00:22.687Z,28.70
2023-01-23T04:02:49.658Z,30.80
2023-01-23T04:05:16.417Z,31.30
2023-01-23T04:07:42.882Z,32.40
2023-01-23T04:10:12.705Z,30.80
2023-01-23T04:12:42.848Z,31.20
2023-01-23T04:15:10.586Z,35.20
2023-01-23T04:17:37.546Z,31.90
2023-01-23T04:20:04.701Z,32.10
2023-01-23T04:22:31.116Z,32.20
2023-01-23T04:24:57.571Z,30.80
2023-01-23T04:27:24.117Z,29.70
2023-01-23T04:29:50.559Z,29.60
2023-01-23T04:32:17.400Z,35.60
2023-01-23T04:34:43.864Z,31.10
2023-01-23T04:37:10.295Z,30.40
2023-01-23T04:39:36.826Z,32.90
2023-01-23T04:42:03.468Z,33.70
2023-01-23T04:44:30.459Z,32.20
2023-01-23T04:46:56.885Z,29.40
2023-01-23T04:49:24.705Z,28.70
2023-01-23T04:51:52.991Z,31.00
2023-01-23T04:54:21.091Z,28.20
2023-01-23T04:56:48.708Z,28.30
2023-01-23T04:59:15.969Z,31.40
2023-01-23T05:01:43.064Z,29.70
2023-01-23T05:04:09.490Z,27.50
2023-01-23T05:06:36.248Z,26.80
2023-01-23T05:09:02.761Z,31.80
2023-01-23T05:11:30.349Z,28.10
2023-01-23T05:13:56.920Z,32.40
2023-01-23T05:16:23.410Z,29.20
2023-01-23T05:18:49.988Z,26.70
2023-01-23T05:21:16.419Z,29.60
2023-01-23T05:23:42.838Z,29.40
2023-01-23T05:26:09.414Z,26.50
2023-01-23T05:28:35.954Z,26.80
2023-01-23T05:31:02.550Z,26.20
2023-01-23T05:33:30.745Z,26.10
2023-01-23T05:36:00.947Z,28.70
2023-01-23T05:38:27.533Z,26.70
2023-01-23T05:40:53.957Z,25.10
2023-01-23T05:43:20.403Z,24.70
2023-01-23T05:45:47.069Z,26.10
2023-01-23T05:48:13.513Z,30.30
2023-01-23T05:50:40.648Z,26.50
2023-01-23T05:53:07.154Z,27.20
2023-01-23T05:55:33.741Z,28.80
2023-01-23T05:58:00.279Z,24.90
2023-01-23T06:00:26.918Z,25.80
2023-01-23T06:02:53.383Z,26.50
2023-01-23T06:05:20.346Z,25.80
2023-01-23T06:07:46.861Z,24.90
2023-01-23T06:10:13.635Z,25.50
2023-01-23T06:12:40.046Z,30.00
2023-01-23T06:15:07.182Z,29.40
2023-01-23T06:17:34.094Z,27.90
2023-01-23T06:20:00.891Z,24.90
2023-01-23T06:22:27.428Z,24.10
2023-01-23T06:24:53.972Z,24.10
2023-01-23T06:27:20.509Z,24.00
2023-01-23T06:29:47.352Z,24.80
2023-01-23T06:32:13.829Z,21.90
2023-01-23T06:34:40.265Z,21.70
2023-01-23T06:37:06.836Z,28.60
2023-01-23T06:39:33.413Z,29.00
2023-01-23T06:42:00.149Z,26.60
2023-01-23T06:44:26.689Z,29.50
2023-01-23T06:46:53.433Z,26.10
2023-01-23T06:49:19.983Z,28.20
2023-01-23T06:51:46.402Z,25.70
2023-01-23T06:54:12.871Z,30.90
2023-01-23T06:56:39.409Z,30.70
2023-01-23T06:59:07.153Z,27.20
2023-01-23T07:01:33.690Z,26.30
2023-01-23T07:04:00.853Z,22.70
2023-01-23T07:06:27.390Z,26.90
2023-01-23T07:08:53.929Z,26.70
2023-01-23T07:11:20.335Z,25.70
2023-01-23T07:13:46.731Z,27.00
2023-01-23T07:16:13.270Z,25.40
2023-01-23T07:18:39.916Z,26.20
2023-01-23T07:21:06.759Z,24.70
2023-01-23T07:23:34.520Z,28.10
2023-01-23T07:26:03.495Z,28.90
2023-01-23T07:28:31.245Z,24.00
2023-01-23T07:30:59.044Z,24.40
2023-01-23T07:33:25.737Z,29.00
2023-01-23T07:35:52.294Z,28.90
2023-01-23T07:38:18.737Z,31.20
2023-01-23T07:40:45.336Z,29.90
2023-01-23T07:43:12.117Z,30.50
2023-01-23T07:45:38.732Z,28.80
2023-01-23T07:48:05.174Z,26.90
2023-01-23T07:50:31.665Z,33.40
2023-01-23T07:52:58.183Z,40.00
2023-01-23T07:55:24.745Z,31.60
2023-01-23T07:57:51.186Z,30.50
2023-01-23T08:00:18.621Z,29.10
2023-01-23T08:02:45.297Z,29.40
2023-01-23T08:05:11.835Z,27.70
2023-01-23T08:07:38.275Z,33.30
2023-01-23T08:10:05.636Z,33.40
2023-01-23T08:12:32.171Z,26.10
2023-01-23T08:14:58.708Z,26.70
2023-01-23T08:17:25.142Z,27.00
2023-01-23T08:19:53.535Z,24.30
2023-01-23T08:22:20.098Z,28.80
2023-01-23T08:24:46.611Z,30.00
2023-01-23T08:27:13.373Z,30.20
2023-01-23T08:29:40.131Z,31.80
2023-01-23T08:32:06.667Z,29.80
2023-01-23T08:34:33.525Z,26.90
2023-01-23T08:37:00.075Z,32.60
2023-01-23T08:39:26.536Z,31.20
2023-01-23T08:41:53.085Z,31.60
2023-01-23T08:44:19.657Z,30.80
2023-01-23T08:46:46.561Z,32.90
2023-01-23T08:49:13.663Z,31.00
2023-01-23T08:51:40.151Z,36.60
2023-01-23T08:54:06.617Z,36.80
2023-01-23T08:56:33.055Z,55.20
2023-01-23T08:58:59.630Z,51.50
2023-01-23T09:01:26.994Z,43.20
2023-01-23T09:03:53.829Z,43.90
2023-01-23T09:06:22.513Z,76.80
2023-01-23T09:08:49.156Z,57.70
2023-01-23T09:11:16.413Z,63.00
2023-01-23T09:13:42.955Z,53.50
2023-01-23T09:16:09.944Z,65.00
2023-01-23T09:18:36.962Z,57.30
2023-01-23T09:21:12.871Z,51.10
2023-01-23T09:23:39.394Z,40.70
2023-01-23T09:26:08.043Z,33.80
2023-01-23T09:28:39.105Z,37.30
2023-01-23T09:31:08.217Z,38.30
2023-01-23T09:33:35.872Z,35.20
2023-01-23T09:36:03.951Z,36.30
2023-01-23T09:38:31.313Z,36.20
2023-01-23T09:40:58.879Z,34.40
2023-01-23T09:43:39.946Z,36.10
2023-01-23T09:46:28.300Z,36.20
2023-01-23T09:49:04.057Z,28.90
2023-01-23T09:52:12.471Z,27.60
2023-01-23T09:54:44.398Z,28.50
2023-01-23T09:57:51.604Z,25.60
2023-01-23T10:00:27.145Z,24.30
2023-01-23T10:02:55.102Z,24.00
2023-01-23T10:05:31.469Z,25.00
2023-01-23T10:08:20.743Z,24.10
2023-01-23T10:10:47.247Z,21.00
2023-01-23T10:13:18.503Z,22.80
2023-01-23T10:16:04.593Z,21.50
2023-01-23T10:18:37.104Z,23.80
2023-01-23T10:21:51.451Z,26.40
2023-01-23T10:24:45.708Z,29.70
2023-01-23T10:27:43.512Z,22.80
2023-01-23T10:30:22.185Z,22.90
2023-01-23T10:32:58.411Z,23.00
2023-01-23T10:35:52.737Z,30.20
2023-01-23T10:38:43.394Z,20.60
2023-01-23T10:41:12.010Z,22.30
2023-01-23T10:43:38.829Z,22.40
2023-01-23T10:46:14.442Z,25.90
2023-01-23T10:48:42.878Z,21.40
2023-01-23T10:51:38.456Z,19.70
2023-01-23T10:54:25.995Z,21.60
2023-01-23T10:56:58.308Z,18.70
2023-01-23T10:59:35.610Z,22.50
2023-01-23T11:02:13.296Z,21.90
2023-01-23T11:04:44.041Z,18.80
2023-01-23T11:07:17.240Z,20.40
2023-01-23T11:09:58.707Z,23.30
2023-01-23T11:12:31.111Z,22.30
2023-01-23T11:15:22.670Z,21.20
2023-01-23T11:20:29.727Z,22.90
2023-01-23T11:23:03.916Z,22.00
2023-01-23T11:25:32.273Z,23.60
2023-01-23T11:28:18.543Z,24.50
2023-01-23T11:30:50.392Z,22.00
2023-01-23T11:33:26.994Z,21.60
2023-01-23T11:36:06.979Z,22.50
2023-01-23T11:38:52.568Z,23.60
2023-01-23T11:41:27.051Z,22.70
2023-01-23T11:43:53.683Z,23.20
2023-01-23T11:46:58.110Z,24.10
2023-01-23T11:49:31.974Z,27.30
2023-01-23T11:52:21.288Z,29.40
2023-01-23T11:55:11.355Z,38.60
2023-01-23T11:57:57.833Z,37.70
2023-01-23T12:00:46.887Z,39.00
2023-01-23T12:03:44.506Z,41.10
2023-01-23T12:06:20.631Z,36.40
2023-01-23T12:09:05.790Z,42.30
2023-01-23T12:11:42.199Z,60.80
2023-01-23T12:14:21.125Z,62.10
2023-01-23T12:17:26.167Z,49.40
2023-01-23T12:20:03.048Z,58.80
2023-01-23T12:22:48.981Z,63.20
2023-01-23T12:25:39.031Z,91.80
2023-01-23T12:28:25.005Z,65.30
2023-01-23T12:31:30.112Z,52.00
2023-01-23T12:33:56.844Z,44.70
2023-01-23T12:36:59.482Z,44.50
2023-01-23T12:39:59.786Z,30.40
2023-01-23T12:42:38.976Z,37.70
2023-01-23T12:45:11.299Z,38.20
2023-01-23T12:47:44.631Z,35.40
2023-01-23T12:50:15.657Z,34.90
2023-01-23T12:52:49.474Z,36.90
2023-01-23T12:55:15.902Z,31.40
2023-01-23T12:57:59.854Z,35.20
2023-01-23T13:00:36.259Z,35.40
2023-01-23T13:03:44.999Z,32.70
2023-01-23T13:06:47.450Z,33.40
2023-01-23T13:09:42.477Z,31.90
2023-01-23T13:12:20.984Z,40.90
2023-01-23T13:15:13.886Z,36.10
2023-01-23T13:17:39.930Z,36.80
2023-01-23T13:20:32.521Z,34.30
2023-01-23T13:23:29.373Z,33.10
2023-01-23T13:26:17.564Z,37.00
2023-01-23T13:28:46.769Z,40.80
2023-01-23T13:31:42.365Z,37.70
2023-01-23T13:34:18.164Z,38.80
2023-01-23T13:36:49.321Z,38.70
2023-01-23T13:39:18.747Z,36.60
2023-01-23T13:41:47.120Z,37.70
2023-01-23T13:44:40.394Z,35.60
2023-01-23T14:22:56.680Z,42.80
2023-01-23T14:25:23.704Z,44.70
2023-01-23T14:28:03.004Z,43.90
2023-01-23T14:30:29.544Z,53.70
2023-01-23T14:32:56.407Z,46.30
2023-01-23T14:35:31.597Z,59.30
2023-01-23T14:38:01.660Z,54.20
2023-01-23T14:40:35.144Z,57.60
2023-01-23T14:43:09.091Z,58.70
2023-01-23T14:45:37.751Z,73.40
2023-01-23T14:48:07.721Z,53.00
2023-01-23T14:50:35.002Z,53.20
2023-01-23T14:53:15.196Z,44.90
2023-01-23T14:55:46.073Z,52.60
2023-01-23T14:58:22.349Z,61.60
2023-01-23T15:00:49.940Z,92.20
2023-01-23T15:03:41.136Z,61.10
2023-01-23T15:06:12.406Z,76.80
2023-01-23T15:08:39.371Z,80.30
2023-01-23T15:11:06.603Z,82.70
2023-01-23T15:13:42.324Z,87.90
2023-01-23T15:16:21.463Z,57.40
2023-01-23T15:19:32.732Z,104.60
2023-01-23T15:22:29.895Z,122.50
2023-01-23T15:24:56.963Z,103.10
2023-01-23T15:27:23.452Z,116.80
2023-01-23T15:29:49.892Z,79.50
2023-01-23T15:32:23.528Z,70.80
2023-01-23T15:34:57.002Z,74.30
2023-01-23T15:37:26.254Z,75.40
2023-01-23T15:40:03.422Z,73.10
2023-01-23T15:42:33.516Z,80.00
2023-01-23T15:45:00.629Z,93.50
2023-01-23T15:47:31.341Z,80.80
2023-01-23T15:49:59.437Z,72.40
2023-01-23T15:52:47.502Z,116.50
2023-01-23T15:55:15.300Z,115.90
2023-01-23T15:57:42.581Z,139.30
2023-01-23T16:00:18.053Z,130.20
2023-01-23T16:02:56.243Z,119.50
2023-01-23T16:05:26.058Z,145.30
2023-01-23T16:07:55.139Z,158.00
2023-01-23T16:10:21.475Z,79.80
2023-01-23T16:12:50.776Z,97.40
2023-01-23T16:15:19.826Z,92.00
2023-01-23T16:17:47.400Z,103.80
2023-01-23T16:20:19.604Z,94.60
2023-01-23T16:22:54.764Z,94.00
2023-01-23T16:25:43.345Z,96.50
2023-01-23T16:28:18.671Z,84.90
2023-01-23T16:30:46.447Z,93.40
2023-01-23T16:33:13.201Z,89.00
2023-01-23T16:35:40.944Z,99.80
2023-01-23T16:38:07.817Z,66.30
2023-01-23T16:40:34.754Z,87.20
2023-01-23T16:43:01.798Z,106.20
2023-01-23T16:45:31.194Z,101.80
2023-01-23T16:47:58.016Z,98.50
2023-01-23T16:50:35.275Z,125.00
2023-01-23T16:53:07.506Z,206.90
2023-01-23T16:55:38.483Z,182.40
2023-01-23T16:58:06.958Z,238.40
2023-01-23T17:00:36.068Z,260.90
2023-01-23T17:03:08.047Z,306.80
2023-01-23T17:05:34.491Z,105.10
2023-01-23T17:08:02.281Z,138.00
2023-01-23T17:10:41.173Z,119.30
2023-01-23T17:13:11.771Z,109.50
2023-01-23T17:15:38.840Z,101.70
2023-01-23T17:18:05.775Z,111.50
2023-01-23T17:20:32.824Z,126.90
2023-01-23T17:22:59.359Z,128.80
2023-01-23T17:25:27.037Z,131.00
2023-01-23T17:28:11.659Z,112.70
2023-01-23T17:30:40.378Z,71.80
2023-01-23T17:33:17.150Z,73.50
2023-01-23T17:35:44.649Z,64.00
2023-01-23T17:38:16.542Z,81.90
2023-01-23T17:40:42.993Z,71.10
2023-01-23T17:43:12.366Z,72.10
2023-01-23T17:45:39.983Z,79.50
2023-01-23T17:48:13.008Z,96.90
2023-01-23T17:50:42.696Z,149.90
2023-01-23T17:53:14.686Z,81.60
2023-01-23T17:55:42.534Z,104.90
2023-01-23T17:58:09.940Z,100.30
2023-01-23T18:00:38.508Z,134.70
2023-01-23T18:03:06.782Z,106.70
2023-01-23T18:05:33.395Z,141.60
2023-01-23T18:08:00.045Z,163.70
2023-01-23T18:10:27.309Z,120.10
2023-01-23T18:13:40.537Z,119.20
2023-01-23T18:16:23.205Z,93.00
2023-01-23T18:19:00.591Z,127.40
2023-01-23T18:21:27.904Z,111.20
2023-01-23T18:23:55.194Z,117.40
2023-01-23T18:26:43.108Z,91.70
2023-01-23T18:29:31.667Z,97.50
2023-01-23T18:32:20.320Z,148.30
2023-01-23T18:34:55.459Z,115.40
2023-01-23T18:37:47.389Z,95.60
2023-01-23T18:40:44.921Z,104.30
2023-01-23T18:43:33.127Z,73.40
2023-01-23T18:45:59.933Z,89.20
2023-01-23T18:48:26.699Z,91.30
2023-01-23T18:51:15.054Z,94.70
2023-01-23T18:53:50.675Z,90.70
2023-01-23T18:56:42.748Z,87.50
2023-01-23T18:59:38.422Z,102.40
2023-01-23T19:02:37.265Z,123.20
2023-01-23T19:05:33.723Z,116.80
2023-01-23T19:08:01.389Z,149.30
2023-01-23T19:10:40.137Z,131.50
2023-01-23T19:13:24.971Z,139.20
2023-01-23T19:16:22.355Z,126.90
2023-01-23T19:19:10.731Z,136.20
2023-01-23T19:21:42.459Z,116.40
2023-01-23T19:24:09.506Z,114.30
2023-01-23T19:26:39.137Z,105.40
2023-01-23T19:29:20.995Z,91.70
2023-01-23T19:32:04.133Z,109.90
2023-01-23T19:34:33.299Z,121.70
2023-01-23T19:36:59.757Z,124.70
2023-01-23T19:39:26.320Z,119.00
2023-01-23T19:41:52.849Z,99.80
2023-01-23T19:44:21.149Z,99.60
2023-01-23T19:46:47.718Z,94.50
2023-01-23T19:49:14.299Z,96.80
2023-01-23T19:51:41.811Z,96.40
2023-01-23T19:54:10.999Z,140.80
2023-01-23T19:56:37.541Z,178.00
2023-01-23T19:59:04.024Z,187.70
2023-01-23T20:01:33.687Z,155.00
2023-01-23T20:04:01.043Z,126.70
2023-01-23T20:06:27.908Z,127.00
2023-01-23T20:08:54.467Z,110.00
2023-01-23T20:11:21.179Z,105.20
2023-01-23T20:13:47.629Z,92.50
2023-01-23T20:16:17.625Z,99.30
2023-01-23T20:18:45.376Z,86.30
2023-01-23T20:21:11.949Z,87.50
2023-01-23T20:23:38.574Z,84.80
2023-01-23T20:26:05.200Z,84.00
2023-01-23T20:28:32.136Z,87.20
2023-01-23T20:31:10.833Z,93.80
2023-01-23T20:33:38.373Z,86.80
2023-01-23T20:36:09.140Z,99.00
2023-01-23T20:38:35.537Z,97.50
2023-01-23T20:41:10.793Z,91.60
2023-01-23T20:43:37.453Z,106.20
2023-01-23T20:46:07.992Z,111.40
2023-01-23T20:48:38.977Z,95.90
2023-01-23T20:51:08.684Z,120.90
2023-01-23T20:53:37.531Z,79.30
2023-01-23T20:56:08.276Z,88.20
2023-01-23T20:58:36.878Z,135.00
2023-01-23T21:01:03.830Z,136.40
2023-01-23T21:03:30.338Z,150.30
2023-01-23T21:05:57.443Z,130.00
2023-01-23T21:08:24.035Z,132.60
2023-01-23T21:10:50.715Z,121.30
2023-01-23T21:13:17.315Z,112.10
2023-01-23T21:15:44.397Z,105.00
2023-01-23T21:18:11.010Z,114.00
2023-01-23T21:20:39.312Z,99.70
2023-01-23T21:23:06.534Z,78.10
2023-01-23T21:25:35.509Z,73.00
2023-01-23T21:28:02.085Z,91.70
2023-01-23T21:30:28.578Z,90.70
2023-01-23T21:32:55.268Z,94.20
2023-01-23T21:35:21.978Z,94.90
2023-01-23T21:37:48.741Z,111.50
2023-01-23T21:40:15.430Z,99.00
2023-01-23T21:42:42.038Z,98.20
2023-01-23T21:45:09.081Z,103.00
2023-01-23T21:47:35.637Z,80.80
2023-01-23T21:50:02.178Z,88.40
2023-01-23T21:52:28.568Z,97.30
2023-01-23T21:54:56.727Z,97.00
2023-01-23T21:57:23.373Z,84.90
2023-01-23T21:59:49.869Z,85.90
2023-01-23T22:02:16.347Z,77.60
2023-01-23T22:04:42.789Z,118.40
2023-01-23T22:07:09.391Z,97.00
2023-01-23T22:09:35.854Z,89.30
2023-01-23T22:12:02.369Z,92.30
2023-01-23T22:14:29.008Z,77.20
2023-01-23T22:16:55.547Z,108.70
2023-01-23T22:19:25.527Z,100.30
2023-01-23T22:21:55.793Z,114.40
2023-01-23T22:24:22.509Z,82.80
2023-01-23T22:26:49.600Z,112.60
2023-01-23T22:29:16.066Z,118.80
2023-01-23T22:31:43.133Z,124.50
2023-01-23T22:34:09.933Z,107.80
2023-01-23T22:36:36.779Z,101.80
2023-01-23T22:39:03.407Z,87.60
2023-01-23T22:41:29.841Z,79.40
2023-01-23T22:43:57.479Z,76.30
2023-01-23T22:46:23.977Z,81.90
2023-01-23T22:48:51.014Z,82.70
2023-01-23T22:51:27.964Z,69.70
2023-01-23T22:53:55.815Z,78.40
2023-01-23T22:56:23.708Z,76.20
2023-01-23T22:58:51.931Z,81.70
2023-01-23T23:01:19.559Z,70.70
2023-01-23T23:03:46.710Z,66.30
2023-01-23T23:06:16.029Z,72.00
2023-01-23T23:08:45.122Z,66.80
2023-01-23T23:11:19.896Z,71.70
2023-01-23T23:13:46.941Z,68.70
2023-01-23T23:16:22.605Z,72.90
2023-01-23T23:18:52.308Z,78.40
2023-01-23T23:21:22.096Z,69.50
2023-01-23T23:23:48.809Z,77.40
2023-01-23T23:26:16.024Z,82.70
2023-01-23T23:28:42.988Z,79.70
2023-01-23T23:31:10.576Z,67.20
2023-01-23T23:33:37.676Z,65.80
2023-01-23T23:36:05.066Z,70.40
2023-01-23T23:38:31.685Z,60.50
2023-01-23T23:41:01.932Z,58.30
2023-01-23T23:43:28.845Z,58.40
2023-01-23T23:45:57.506Z,54.60
2023-01-23T23:48:25.343Z,55.70
2023-01-23T23:50:52.063Z,55.80
2023-01-23T23:53:18.806Z,60.90
2023-01-23T23:55:45.875Z,55.30
2023-01-23T23:58:13.010Z,56.00
